Time;durP1;ratioP1;P1;durP2;ratioP2;P2;SDS_P1;SDS_P2;PMS_P1;PMS_P2;Temp;Humidity;BMP_temperature;BMP_pressure;BME280_temperature;BME280_humidity;BME280_pressure;Samples;Min_cycle;Max_cycle;Signal;HPM_P1;HPM_P2
2024/04/05 00:04:29;;;;;;;2.00;1.20;;;15.50;99.90;;;;;;10158502;28;20047;-69
2024/04/05 00:09:19;;;;;;;4.68;1.55;;;15.50;99.90;;;;;;10172972;28;20047;-67
2024/04/05 00:14:10;;;;;;;2.95;1.40;;;15.50;99.90;;;;;;10164820;28;20043;-68
2024/04/05 00:19:01;;;;;;;2.10;1.23;;;15.50;99.90;;;;;;10161131;28;20035;-67
2024/04/05 00:23:51;;;;;;;2.28;1.77;;;15.50;99.90;;;;;;10151149;28;20035;-68
2024/04/05 00:28:42;;;;;;;2.28;1.60;;;15.40;99.90;;;;;;10172731;28;20098;-67
2024/04/05 00:33:33;;;;;;;2.60;1.60;;;15.40;99.90;;;;;;10169135;28;20040;-68
2024/04/05 00:38:25;;;;;;;1.80;1.50;;;15.40;99.90;;;;;;10166012;28;20024;-66
2024/04/05 00:43:16;;;;;;;3.65;1.67;;;15.40;99.90;;;;;;10151073;28;20051;-67
2024/04/05 00:48:07;;;;;;;5.18;2.08;;;15.40;99.90;;;;;;10146710;28;20020;-68
2024/04/05 00:52:59;;;;;;;3.10;1.63;;;15.30;99.90;;;;;;10139271;28;20619;-67
2024/04/05 00:57:50;;;;;;;3.67;1.75;;;15.30;99.90;;;;;;10146919;28;20025;-67
2024/04/05 01:02:41;;;;;;;3.80;2.10;;;15.30;99.90;;;;;;10154619;28;20040;-68
2024/04/05 01:07:32;;;;;;;3.63;1.48;;;15.30;99.90;;;;;;10156956;28;20028;-69
2024/04/05 01:12:23;;;;;;;4.68;2.08;;;15.20;99.90;;;;;;10159896;28;20444;-68
2024/04/05 01:17:13;;;;;;;3.60;1.90;;;15.20;99.90;;;;;;10146934;28;20035;-68
2024/04/05 01:22:06;;;;;;;2.85;2.03;;;15.20;99.90;;;;;;10147008;28;20046;-67
2024/04/05 01:26:56;;;;;;;2.78;1.75;;;15.20;99.90;;;;;;10155483;28;20068;-68
2024/04/05 01:31:47;;;;;;;4.15;1.83;;;15.10;99.90;;;;;;10136444;28;20635;-68
2024/04/05 01:36:38;;;;;;;3.67;2.50;;;15.10;99.90;;;;;;10145676;28;20045;-67
2024/04/05 01:41:28;;;;;;;3.33;2.17;;;15.10;99.90;;;;;;10141695;28;20082;-67
2024/04/05 01:46:19;;;;;;;3.85;1.88;;;15.20;99.90;;;;;;10145792;28;20477;-67
2024/04/05 01:51:09;;;;;;;5.05;1.85;;;15.10;99.90;;;;;;10161965;28;20505;-68
2024/04/05 01:56:01;;;;;;;3.65;1.90;;;15.10;99.90;;;;;;10153670;28;20578;-69
2024/04/05 02:01:02;;;;;;;3.15;1.77;;;15.10;99.90;;;;;;10155159;28;20029;-68
2024/04/05 02:05:52;;;;;;;4.78;1.70;;;15.10;99.90;;;;;;10146891;28;20036;-69
2024/04/05 02:10:45;;;;;;;1.98;1.55;;;15.10;99.90;;;;;;10143037;28;20051;-69
2024/04/05 02:15:36;;;;;;;1.80;1.27;;;15.10;99.90;;;;;;10150562;28;20066;-70
2024/04/05 02:20:26;;;;;;;3.88;1.88;;;15.10;99.90;;;;;;10137995;28;20112;-68
2024/04/05 02:25:17;;;;;;;3.72;1.55;;;15.00;99.90;;;;;;10155021;28;20039;-66
2024/04/05 02:30:07;;;;;;;2.67;1.92;;;15.00;99.90;;;;;;10147107;28;20037;-68
2024/04/05 02:34:58;;;;;;;5.55;1.70;;;15.10;99.90;;;;;;10141109;28;20513;-67
2024/04/05 02:39:49;;;;;;;3.30;1.40;;;15.00;99.90;;;;;;10154138;28;20020;-67
2024/04/05 02:44:39;;;;;;;2.22;1.23;;;15.10;99.90;;;;;;10162940;28;20032;-68
2024/04/05 02:49:30;;;;;;;2.45;1.73;;;15.10;99.90;;;;;;10154072;28;20026;-68
2024/04/05 02:54:21;;;;;;;2.80;1.42;;;15.00;99.90;;;;;;10152828;28;20402;-68
2024/04/05 02:59:11;;;;;;;4.28;1.77;;;15.00;99.90;;;;;;10143603;28;20032;-69
2024/04/05 03:04:02;;;;;;;2.22;1.13;;;15.10;99.90;;;;;;10149519;28;20030;-69
2024/04/05 03:08:53;;;;;;;3.58;1.50;;;15.10;99.90;;;;;;10145564;28;20051;-68
2024/04/05 03:13:44;;;;;;;3.78;1.40;;;15.10;99.90;;;;;;10151566;28;20640;-68
2024/04/05 03:18:34;;;;;;;1.92;1.42;;;15.00;99.90;;;;;;10142222;28;20031;-68
2024/04/05 03:23:25;;;;;;;2.67;1.42;;;15.10;99.90;;;;;;10122802;28;20132;-67
2024/04/05 03:28:16;;;;;;;5.78;2.60;;;15.10;99.90;;;;;;10140882;28;20021;-68
2024/04/05 03:33:07;;;;;;;4.75;1.67;;;15.10;99.90;;;;;;10147009;28;20135;-69
2024/04/05 03:37:57;;;;;;;10.00;2.45;;;15.10;99.90;;;;;;10147378;28;20491;-68
2024/04/05 03:42:49;;;;;;;2.05;1.25;;;15.10;99.90;;;;;;10161208;28;20146;-69
2024/04/05 03:47:39;;;;;;;1.90;1.15;;;15.10;99.90;;;;;;10138982;28;20099;-68
2024/04/05 03:52:30;;;;;;;4.00;1.38;;;15.10;99.90;;;;;;10139721;28;20090;-68
2024/04/05 03:57:21;;;;;;;2.42;1.20;;;15.00;99.90;;;;;;10138881;28;20024;-67
2024/04/05 04:02:11;;;;;;;4.70;1.58;;;15.00;99.90;;;;;;10128816;28;20432;-69
2024/04/05 04:07:02;;;;;;;2.58;1.45;;;15.00;99.90;;;;;;10147929;28;20107;-69
2024/04/05 04:11:53;;;;;;;3.53;2.10;;;15.00;99.90;;;;;;10144310;28;20055;-70
2024/04/05 04:16:43;;;;;;;4.75;1.92;;;14.90;99.90;;;;;;10139961;28;20049;-69
2024/04/05 04:21:35;;;;;;;4.00;2.53;;;14.90;99.90;;;;;;10138912;28;20102;-70
2024/04/05 04:26:25;;;;;;;3.08;2.13;;;14.80;99.90;;;;;;10144752;28;20033;-68
2024/04/05 04:31:23;;;;;;;4.22;2.33;;;14.80;99.90;;;;;;10138821;28;20036;-70
2024/04/05 04:36:14;;;;;;;4.35;2.53;;;14.80;99.90;;;;;;10163422;28;20638;-66
2024/04/05 04:41:05;;;;;;;3.70;1.85;;;14.80;99.90;;;;;;10148887;28;20031;-68
2024/04/05 04:45:56;;;;;;;3.22;2.05;;;14.80;99.90;;;;;;10152656;28;20028;-68
2024/04/05 04:50:46;;;;;;;3.88;2.53;;;14.80;99.90;;;;;;10153574;28;20589;-69
2024/04/05 04:55:37;;;;;;;5.45;2.10;;;14.80;99.90;;;;;;10153745;28;20033;-69
2024/04/05 05:00:27;;;;;;;5.22;2.10;;;14.80;99.90;;;;;;10156599;28;20028;-69
2024/04/05 05:05:18;;;;;;;3.38;2.00;;;14.80;99.90;;;;;;10168362;28;20180;-69
2024/04/05 05:10:09;;;;;;;4.20;2.15;;;14.80;99.90;;;;;;10138561;28;20553;-70
2024/04/05 05:15:00;;;;;;;4.18;2.00;;;14.90;99.90;;;;;;10157818;28;20067;-70
2024/04/05 05:19:51;;;;;;;3.30;2.20;;;14.90;99.90;;;;;;10152813;28;20025;-70
2024/04/05 05:24:41;;;;;;;4.65;1.98;;;14.90;99.90;;;;;;10149073;28;20507;-69
2024/04/05 05:29:32;;;;;;;3.95;1.90;;;14.90;99.90;;;;;;10144257;28;20059;-71
2024/04/05 05:34:23;;;;;;;2.40;1.85;;;14.80;99.90;;;;;;10142726;28;20413;-70
2024/04/05 05:39:13;;;;;;;3.50;1.65;;;14.80;99.90;;;;;;10157598;28;20526;-69
2024/04/05 05:44:04;;;;;;;3.22;1.50;;;14.80;99.90;;;;;;10151423;28;20044;-69
2024/04/05 05:48:55;;;;;;;4.03;2.83;;;15.00;99.90;;;;;;10146052;28;20059;-69
2024/04/05 05:53:46;;;;;;;7.53;2.30;;;15.00;99.90;;;;;;10141688;28;20045;-69
2024/04/05 05:58:37;;;;;;;3.08;2.00;;;15.10;99.90;;;;;;10131363;28;20397;-69
2024/04/05 06:03:27;;;;;;;4.07;1.92;;;15.10;99.90;;;;;;10136255;28;20042;-70
2024/04/05 06:08:18;;;;;;;3.40;1.73;;;15.20;99.90;;;;;;10135495;28;20041;-68
2024/04/05 06:13:08;;;;;;;3.28;1.95;;;15.10;99.90;;;;;;10134375;28;20430;-70
2024/04/05 06:17:59;;;;;;;5.68;1.75;;;15.20;99.90;;;;;;10132690;28;20214;-69
2024/04/05 06:22:50;;;;;;;4.22;1.40;;;15.20;99.90;;;;;;10134513;28;20426;-69
2024/04/05 06:27:42;;;;;;;3.03;2.08;;;15.20;99.90;;;;;;10132858;28;20187;-70
2024/04/05 06:32:33;;;;;;;2.42;1.17;;;15.20;99.90;;;;;;10137585;28;20576;-70
2024/04/05 06:37:26;;;;;;;2.20;1.40;;;15.30;99.90;;;;;;10133502;28;20047;-69
2024/04/05 06:42:16;;;;;;;2.17;1.90;;;15.30;99.90;;;;;;10129677;28;20040;-70
2024/04/05 06:47:08;;;;;;;9.00;2.22;;;15.30;99.90;;;;;;10126647;28;20017;-68
2024/04/05 06:52:06;;;;;;;3.72;2.53;;;15.30;99.90;;;;;;10135923;28;20427;-67
2024/04/05 06:56:57;;;;;;;1.92;1.50;;;15.30;99.90;;;;;;10135845;28;20478;-67
2024/04/05 07:01:50;;;;;;;2.90;1.98;;;15.30;99.90;;;;;;10121119;28;20033;-68
2024/04/05 07:06:41;;;;;;;3.83;1.80;;;15.30;99.90;;;;;;10126657;28;20059;-67
2024/04/05 07:11:31;;;;;;;3.67;2.10;;;15.40;99.90;;;;;;10125469;28;20505;-67
2024/04/05 07:16:22;;;;;;;3.58;1.38;;;15.40;99.90;;;;;;10136582;28;20458;-68
2024/04/05 07:21:13;;;;;;;4.05;1.50;;;15.30;99.90;;;;;;10152956;28;20884;-68
2024/04/05 07:26:08;;;;;;;3.75;1.48;;;15.30;99.90;;;;;;10143740;28;20035;-68
2024/04/05 07:31:00;;;;;;;2.70;1.50;;;15.30;99.90;;;;;;10135881;28;20023;-67
2024/04/05 07:35:55;;;;;;;3.78;1.60;;;15.40;99.90;;;;;;10114238;28;20671;-67
2024/04/05 07:40:45;;;;;;;1.90;1.67;;;15.40;99.90;;;;;;10111057;28;20024;-68
2024/04/05 07:45:36;;;;;;;3.22;1.38;;;15.50;99.90;;;;;;10133522;28;20042;-68
2024/04/05 07:50:27;;;;;;;6.07;1.90;;;15.50;99.90;;;;;;10138035;28;20032;-67
2024/04/05 07:55:17;;;;;;;2.83;1.65;;;15.50;99.90;;;;;;10137683;28;20048;-66
2024/04/05 08:00:13;;;;;;;3.00;1.60;;;15.60;99.90;;;;;;10124008;28;20033;-67
2024/04/05 08:05:04;;;;;;;4.00;1.42;;;15.60;99.90;;;;;;10127460;28;20036;-66
2024/04/05 08:09:55;;;;;;;3.90;1.67;;;15.70;99.90;;;;;;10162580;28;20040;-66
2024/04/05 08:14:46;;;;;;;1.75;1.02;;;15.70;99.90;;;;;;10159751;28;20036;-68
2024/04/05 08:19:36;;;;;;;2.08;1.40;;;15.80;99.90;;;;;;10144810;28;20152;-68
2024/04/05 08:24:27;;;;;;;2.10;1.30;;;15.80;99.90;;;;;;10140738;28;20048;-68
2024/04/05 08:29:18;;;;;;;3.53;1.23;;;16.00;99.90;;;;;;10131932;28;20076;-68
2024/04/05 08:34:09;;;;;;;1.75;0.75;;;16.00;99.90;;;;;;10150412;28;20043;-68
2024/04/05 08:39:00;;;;;;;1.98;0.88;;;16.20;99.90;;;;;;10157084;28;20035;-67
2024/04/05 08:43:54;;;;;;;1.70;1.25;;;16.20;99.90;;;;;;10147769;28;20489;-67
2024/04/05 08:48:48;;;;;;;1.42;0.95;;;16.30;99.90;;;;;;10146385;28;20427;-67
2024/04/05 08:53:39;;;;;;;4.00;1.00;;;16.30;99.90;;;;;;10133665;28;20090;-68
2024/04/05 08:58:30;;;;;;;1.40;1.10;;;16.30;99.90;;;;;;10146582;28;20482;-68
2024/04/05 09:03:21;;;;;;;2.17;1.10;;;16.40;99.90;;;;;;10146654;28;20386;-68
2024/04/05 09:08:12;;;;;;;2.05;1.02;;;16.50;99.90;;;;;;10131220;28;20041;-70
2024/04/05 09:13:07;;;;;;;1.70;0.90;;;16.40;99.90;;;;;;10142312;28;20035;-70
2024/04/05 09:17:58;;;;;;;1.60;0.88;;;16.50;99.90;;;;;;10132462;28;20055;-71
2024/04/05 09:22:49;;;;;;;1.08;0.73;;;16.60;99.90;;;;;;10156503;28;20040;-71
2024/04/05 09:27:40;;;;;;;1.60;1.00;;;16.80;99.90;;;;;;10149511;28;20035;-67
2024/04/05 09:32:31;;;;;;;1.95;1.17;;;16.90;99.90;;;;;;10129328;28;20056;-68
2024/04/05 09:37:25;;;;;;;1.98;1.00;;;17.00;99.90;;;;;;10146527;28;20096;-67
2024/04/05 09:42:20;;;;;;;1.40;0.80;;;17.20;99.90;;;;;;10140746;28;20431;-69
2024/04/05 09:47:11;;;;;;;5.93;2.23;;;17.30;99.90;;;;;;10141817;28;20028;-70
2024/04/05 09:52:09;;;;;;;2.58;0.95;;;17.50;99.90;;;;;;10150706;28;20032;-68
2024/04/05 09:57:00;;;;;;;2.40;1.23;;;17.60;99.90;;;;;;10138666;28;20133;-67
2024/04/05 10:01:52;;;;;;;1.98;1.33;;;17.50;99.90;;;;;;10147162;28;20069;-66
2024/04/05 10:06:42;;;;;;;1.88;1.10;;;17.60;99.90;;;;;;10143362;28;20039;-69
2024/04/05 10:11:34;;;;;;;1.38;0.95;;;17.60;99.90;;;;;;10147533;28;20059;-67
2024/04/05 10:16:25;;;;;;;2.88;0.82;;;17.70;99.90;;;;;;10136563;28;20048;-67
2024/04/05 10:21:17;;;;;;;2.50;1.10;;;17.70;99.90;;;;;;10137633;28;20047;-68
2024/04/05 10:26:11;;;;;;;2.10;0.90;;;17.80;99.90;;;;;;10135250;28;20033;-69
2024/04/05 10:31:02;;;;;;;3.47;1.73;;;17.80;99.90;;;;;;10135150;28;20021;-67
2024/04/05 10:35:57;;;;;;;2.35;0.95;;;18.00;99.90;;;;;;10132625;28;20509;-68
2024/04/05 10:41:01;;;;;;;2.40;0.95;;;18.20;99.90;;;;;;10133576;28;20050;-67
2024/04/05 10:45:54;;;;;;;4.45;1.70;;;18.40;99.90;;;;;;10129007;28;20043;-68
2024/04/05 10:50:44;;;;;;;2.55;1.00;;;18.50;99.90;;;;;;10135412;28;20033;-67
2024/04/05 10:55:36;;;;;;;2.63;1.00;;;18.50;99.90;;;;;;10118613;28;20040;-70
2024/04/05 11:00:27;;;;;;;3.53;1.50;;;18.40;99.90;;;;;;10113119;28;20028;-69
2024/04/05 11:05:20;;;;;;;2.20;1.95;;;18.40;99.90;;;;;;10126918;28;20397;-69
2024/04/05 11:10:16;;;;;;;2.10;0.77;;;18.50;99.90;;;;;;10128344;28;20051;-68
2024/04/05 11:15:07;;;;;;;1.85;0.93;;;18.50;99.90;;;;;;10136056;28;20052;-68
2024/04/05 11:20:09;;;;;;;2.35;1.00;;;18.60;99.90;;;;;;10129935;28;21151;-68
2024/04/05 11:25:00;;;;;;;2.20;1.40;;;18.80;99.90;;;;;;10125404;28;20112;-68
2024/04/05 11:29:50;;;;;;;0.70;0.70;;;19.00;99.90;;;;;;10133041;28;20064;-68
2024/04/05 11:34:41;;;;;;;3.78;0.90;;;19.30;99.90;;;;;;10136949;28;20029;-68
2024/04/05 11:39:31;;;;;;;1.45;0.70;;;19.30;99.90;;;;;;10126538;28;20121;-68
2024/04/05 11:44:24;;;;;;;0.85;0.55;;;19.50;99.90;;;;;;10150882;28;20039;-69
2024/04/05 11:49:14;;;;;;;2.15;0.57;;;19.60;99.90;;;;;;10149716;28;20025;-67
2024/04/05 11:54:05;;;;;;;1.23;1.08;;;19.70;99.90;;;;;;10143245;28;20108;-67
2024/04/05 11:58:56;;;;;;;0.70;0.50;;;19.80;99.90;;;;;;10135805;28;20405;-68
2024/04/05 12:03:46;;;;;;;2.15;0.80;;;19.90;99.90;;;;;;10150950;28;20519;-68
2024/04/05 12:08:37;;;;;;;1.48;0.55;;;19.90;99.90;;;;;;10128766;28;20054;-68
2024/04/05 12:13:27;;;;;;;0.50;0.50;;;19.70;99.90;;;;;;10156870;28;20045;-67
2024/04/05 12:18:20;;;;;;;1.55;0.80;;;19.70;99.90;;;;;;10145012;28;20056;-67
2024/04/05 12:23:10;;;;;;;1.48;0.77;;;19.80;99.90;;;;;;10136246;28;20021;-68
2024/04/05 12:28:02;;;;;;;1.88;0.75;;;19.70;99.90;;;;;;10135887;28;20035;-68
2024/04/05 12:32:52;;;;;;;0.70;0.60;;;19.70;99.90;;;;;;10141956;28;20184;-68
2024/04/05 12:37:44;;;;;;;0.88;0.50;;;19.60;99.90;;;;;;10146461;28;20465;-67
2024/04/05 12:42:35;;;;;;;1.92;0.65;;;19.70;99.90;;;;;;10148012;28;20115;-68
2024/04/05 12:47:26;;;;;;;1.98;1.20;;;19.70;99.90;;;;;;10147129;28;20032;-68
2024/04/05 12:52:17;;;;;;;2.05;1.00;;;19.70;99.90;;;;;;10131679;28;20611;-68
2024/04/05 12:57:08;;;;;;;2.20;1.13;;;19.80;99.90;;;;;;10133810;28;20063;-67
2024/04/05 13:01:58;;;;;;;1.73;0.93;;;19.90;99.90;;;;;;10131486;28;20013;-66
2024/04/05 13:06:49;;;;;;;2.88;0.90;;;20.00;99.90;;;;;;10136517;28;20039;-67
2024/04/05 13:11:40;;;;;;;1.35;0.70;;;20.00;99.90;;;;;;10148173;28;20041;-67
2024/04/05 13:16:31;;;;;;;1.30;0.80;;;20.20;99.90;;;;;;10142364;28;20068;-66
2024/04/05 13:21:22;;;;;;;1.55;0.80;;;20.20;99.90;;;;;;10146237;28;20029;-67
2024/04/05 13:26:17;;;;;;;2.00;1.10;;;20.30;99.90;;;;;;10123108;28;20036;-67
2024/04/05 13:31:08;;;;;;;2.15;0.88;;;20.30;99.90;;;;;;10146295;28;20039;-66
2024/04/05 13:36:14;;;;;;;1.02;0.63;;;20.60;99.90;;;;;;10144966;28;20036;-68
2024/04/05 13:41:06;;;;;;;1.42;0.82;;;20.70;99.90;;;;;;10137582;28;20385;-67
2024/04/05 13:46:10;;;;;;;1.63;0.50;;;20.60;99.90;;;;;;10140315;28;20091;-68
2024/04/05 13:51:01;;;;;;;0.87;0.63;;;20.80;99.90;;;;;;10140592;28;20472;-67
2024/04/05 13:55:52;;;;;;;1.88;0.68;;;20.80;99.90;;;;;;10143766;28;20132;-68
2024/04/05 14:00:42;;;;;;;4.07;0.80;;;20.80;99.90;;;;;;10149122;28;20032;-67
2024/04/05 14:05:35;;;;;;;2.00;0.77;;;20.80;99.90;;;;;;10147777;28;20136;-67
2024/04/05 14:10:26;;;;;;;1.73;0.60;;;20.80;99.90;;;;;;10142992;28;20089;-67
2024/04/05 14:15:17;;;;;;;2.05;0.60;;;20.80;99.90;;;;;;10145816;28;20048;-67
2024/04/05 14:20:09;;;;;;;1.75;0.70;;;20.80;99.90;;;;;;10123100;28;20041;-68
2024/04/05 14:25:04;;;;;;;1.13;0.60;;;20.80;99.90;;;;;;10147739;28;20032;-68
2024/04/05 14:29:55;;;;;;;1.60;0.60;;;20.90;99.90;;;;;;10141185;28;20224;-69
2024/04/05 14:34:49;;;;;;;1.25;0.80;;;20.80;99.90;;;;;;10143664;28;20032;-68
2024/04/05 14:39:39;;;;;;;1.23;0.80;;;20.80;99.90;;;;;;10139264;28;20033;-67
2024/04/05 14:44:31;;;;;;;1.40;0.77;;;20.70;99.90;;;;;;10147127;28;20035;-67
2024/04/05 14:49:23;;;;;;;0.98;0.90;;;20.60;99.90;;;;;;10139136;28;20111;-69
2024/04/05 14:54:16;;;;;;;2.20;0.80;;;20.60;99.90;;;;;;10157064;28;20048;-67
2024/04/05 14:59:08;;;;;;;1.27;0.82;;;20.50;99.90;;;;;;10156963;28;20055;-67
2024/04/05 15:03:58;;;;;;;1.80;0.70;;;20.50;99.90;;;;;;10150314;28;20029;-67
2024/04/05 15:08:49;;;;;;;4.20;0.82;;;20.50;99.90;;;;;;10156044;28;20089;-67
2024/04/05 15:13:40;;;;;;;1.17;0.63;;;20.50;99.90;;;;;;10153491;28;20028;-68
2024/04/05 15:18:31;;;;;;;2.22;0.80;;;20.60;99.90;;;;;;10128213;28;20115;-67
2024/04/05 15:23:22;;;;;;;2.40;1.13;;;20.70;99.90;;;;;;10134564;28;20071;-67
2024/04/05 15:28:13;;;;;;;1.48;1.10;;;20.60;99.90;;;;;;10129850;28;20069;-66
2024/04/05 15:33:04;;;;;;;2.15;1.25;;;20.60;99.90;;;;;;10135639;28;20040;-65
2024/04/05 15:37:54;;;;;;;5.85;2.10;;;20.60;99.90;;;;;;10128339;28;20031;-68
2024/04/05 15:42:45;;;;;;;1.42;1.27;;;20.50;99.90;;;;;;10128977;28;20150;-66
2024/04/05 15:47:36;;;;;;;1.45;0.90;;;20.60;99.90;;;;;;10136637;28;20080;-67
2024/04/05 15:52:26;;;;;;;2.58;0.93;;;20.60;99.90;;;;;;10140711;28;20047;-66
2024/04/05 15:57:17;;;;;;;2.13;0.82;;;20.60;99.90;;;;;;10149417;28;20469;-66
2024/04/05 16:02:08;;;;;;;2.47;0.77;;;20.60;99.90;;;;;;10137888;28;20378;-68
2024/04/05 16:06:58;;;;;;;2.38;0.70;;;20.70;99.90;;;;;;10121891;28;20118;-65
2024/04/05 16:11:49;;;;;;;1.75;0.75;;;20.80;99.90;;;;;;10105633;28;20106;-66
2024/04/05 16:16:39;;;;;;;1.02;0.70;;;20.80;99.90;;;;;;10134748;28;20037;-68
2024/04/05 16:21:30;;;;;;;1.17;0.77;;;20.80;99.90;;;;;;10151994;28;20036;-68
2024/04/05 16:26:21;;;;;;;1.30;0.80;;;20.80;99.90;;;;;;10148441;28;20032;-67
2024/04/05 16:31:16;;;;;;;1.05;0.60;;;20.80;99.90;;;;;;10148060;28;20025;-67
2024/04/05 16:36:07;;;;;;;2.17;0.80;;;20.80;99.90;;;;;;10143138;28;20029;-68
2024/04/05 16:40:58;;;;;;;1.15;0.80;;;20.80;99.90;;;;;;10135537;28;20060;-70
2024/04/05 16:45:49;;;;;;;1.83;1.15;;;20.70;99.90;;;;;;10133267;28;20043;-68
2024/04/05 16:50:41;;;;;;;2.03;0.90;;;20.70;99.90;;;;;;10121125;28;20508;-68
2024/04/05 16:55:32;;;;;;;2.38;1.08;;;20.70;99.90;;;;;;10150905;28;20056;-73
2024/04/05 17:00:23;;;;;;;1.98;0.77;;;20.70;99.90;;;;;;10137924;28;20032;-73
2024/04/05 17:05:19;;;;;;;1.88;1.27;;;20.60;99.90;;;;;;10147134;28;20040;-73
2024/04/05 17:10:16;;;;;;;1.27;0.90;;;20.60;99.90;;;;;;10150350;28;20044;-72
2024/04/05 17:15:07;;;;;;;1.95;1.02;;;20.60;99.90;;;;;;10152381;28;20093;-73
2024/04/05 17:19:57;;;;;;;0.70;0.70;;;20.60;99.90;;;;;;10146547;28;20070;-72
2024/04/05 17:24:48;;;;;;;1.77;1.13;;;20.50;99.90;;;;;;10142152;28;20040;-70
2024/04/05 17:29:39;;;;;;;3.97;1.60;;;20.40;99.90;;;;;;10151779;28;20021;-72
2024/04/05 17:34:29;;;;;;;2.90;1.55;;;20.40;99.90;;;;;;10151535;28;20514;-73
2024/04/05 17:39:20;;;;;;;3.35;1.95;;;20.40;99.90;;;;;;10149348;28;20050;-71
2024/04/05 17:44:10;;;;;;;1.63;1.10;;;20.40;99.90;;;;;;10134770;28;20051;-71
2024/04/05 17:49:04;;;;;;;1.60;1.33;;;20.40;99.90;;;;;;10140431;28;20033;-72
2024/04/05 17:53:55;;;;;;;3.25;1.95;;;20.40;99.90;;;;;;10122010;28;20821;-72
2024/04/05 17:58:49;;;;;;;3.10;1.60;;;20.40;99.90;;;;;;10139969;28;20025;-72
2024/04/05 18:03:40;;;;;;;3.13;1.80;;;20.40;99.90;;;;;;10140616;28;20406;-72
2024/04/05 18:08:31;;;;;;;2.60;1.58;;;20.40;99.90;;;;;;10139311;28;20048;-72
2024/04/05 18:13:22;;;;;;;1.95;1.65;;;20.40;99.90;;;;;;10121894;28;20040;-71
2024/04/05 18:18:12;;;;;;;3.25;1.50;;;20.40;99.90;;;;;;10146805;28;20472;-73
2024/04/05 18:23:03;;;;;;;3.08;1.42;;;20.30;99.90;;;;;;10147007;28;20611;-73
2024/04/05 18:27:54;;;;;;;2.65;1.77;;;20.30;99.90;;;;;;10146642;28;20036;-73
2024/04/05 18:32:45;;;;;;;3.92;1.90;;;20.30;99.90;;;;;;10160346;28;20032;-71
2024/04/05 18:37:36;;;;;;;2.50;1.27;;;20.30;99.90;;;;;;10142007;28;20109;-72
2024/04/05 18:42:27;;;;;;;5.50;2.38;;;20.20;99.90;;;;;;10154895;28;20040;-72
2024/04/05 18:47:20;;;;;;;3.75;2.38;;;20.20;99.90;;;;;;10152614;28;20021;-73
2024/04/05 18:52:11;;;;;;;3.58;2.28;;;20.20;99.90;;;;;;10140261;28;20039;-71
2024/04/05 18:57:03;;;;;;;5.18;2.60;;;20.20;99.90;;;;;;10137041;28;20094;-71
2024/04/05 19:01:59;;;;;;;7.50;2.25;;;20.20;99.90;;;;;;10142113;28;20209;-72
2024/04/05 19:06:51;;;;;;;4.40;2.65;;;20.20;99.90;;;;;;10153596;28;20517;-70
2024/04/05 19:11:44;;;;;;;5.70;2.60;;;20.20;99.90;;;;;;10159046;28;20044;-72
2024/04/05 19:16:35;;;;;;;5.38;2.42;;;20.20;99.90;;;;;;10155126;28;20044;-72
2024/04/05 19:21:29;;;;;;;6.30;2.88;;;20.20;99.90;;;;;;10143948;28;20020;-71
2024/04/05 19:26:22;;;;;;;6.28;3.03;;;20.10;99.90;;;;;;10145625;28;20032;-72
2024/04/05 19:31:15;;;;;;;5.32;2.70;;;20.10;99.90;;;;;;10143321;28;20059;-72
2024/04/05 19:36:07;;;;;;;4.72;2.60;;;20.10;99.90;;;;;;10134840;28;20044;-71
2024/04/05 19:40:59;;;;;;;5.78;2.53;;;20.10;99.90;;;;;;10154294;28;20017;-74
2024/04/05 19:45:50;;;;;;;4.55;2.75;;;20.10;99.90;;;;;;10141661;28;20035;-74
2024/04/05 19:50:41;;;;;;;7.30;3.22;;;20.10;99.90;;;;;;10146943;28;20043;-73
2024/04/05 19:55:31;;;;;;;6.30;3.28;;;20.00;99.90;;;;;;10140091;28;20036;-72
2024/04/05 20:00:22;;;;;;;5.10;2.55;;;20.00;99.90;;;;;;10139509;28;20023;-72
2024/04/05 20:05:12;;;;;;;6.63;2.75;;;20.00;99.90;;;;;;10128206;28;20029;-71
2024/04/05 20:10:05;;;;;;;6.78;3.08;;;20.00;99.90;;;;;;10141070;28;20553;-73
2024/04/05 20:14:56;;;;;;;7.40;3.30;;;20.00;99.90;;;;;;10147058;28;20052;-72
2024/04/05 20:19:47;;;;;;;5.03;2.30;;;20.00;99.90;;;;;;10142984;28;20524;-74
2024/04/05 20:24:39;;;;;;;3.92;2.00;;;20.00;99.90;;;;;;10155139;28;20036;-73
2024/04/05 20:34:39;;;;;;;2.70;1.60;;;19.90;99.90;;;;;;10144758;28;20153;-70
2024/04/05 20:39:31;;;;;;;4.35;2.40;;;19.90;99.90;;;;;;10152558;28;20031;-72
2024/04/05 20:44:22;;;;;;;5.05;1.98;;;19.90;99.90;;;;;;10149355;28;20024;-73
2024/04/05 20:49:12;;;;;;;6.38;2.05;;;19.90;99.90;;;;;;10144975;28;20040;-69
2024/04/05 20:54:03;;;;;;;3.90;1.90;;;19.90;99.90;;;;;;10151470;28;20124;-69
2024/04/05 20:58:57;;;;;;;2.75;1.40;;;19.80;99.90;;;;;;10143211;28;20522;-69
2024/04/05 21:03:48;;;;;;;4.95;1.88;;;19.80;99.90;;;;;;10154148;28;20166;-69
2024/04/05 21:08:39;;;;;;;2.70;2.10;;;19.80;99.90;;;;;;10143992;28;20040;-69
2024/04/05 21:13:29;;;;;;;4.03;1.98;;;19.80;99.90;;;;;;10148047;28;20048;-70
2024/04/05 21:18:20;;;;;;;4.68;2.10;;;19.80;99.90;;;;;;10152164;28;20032;-70
2024/04/05 21:23:11;;;;;;;4.28;1.85;;;19.80;99.90;;;;;;10165816;28;20483;-70
2024/04/05 21:28:03;;;;;;;3.00;1.38;;;19.80;99.90;;;;;;10150094;28;20029;-70
2024/04/05 21:32:54;;;;;;;5.38;1.92;;;19.80;99.90;;;;;;10136279;28;20037;-70
2024/04/05 21:37:44;;;;;;;3.65;1.95;;;19.80;99.90;;;;;;10141263;28;20684;-68
2024/04/05 21:42:35;;;;;;;5.40;1.73;;;19.80;99.90;;;;;;10144738;28;20123;-71
2024/04/05 21:47:26;;;;;;;2.03;1.48;;;19.80;99.90;;;;;;10150793;28;20381;-69
2024/04/05 21:52:18;;;;;;;4.97;1.52;;;19.80;99.90;;;;;;10150835;28;20053;-70
2024/04/05 21:57:09;;;;;;;1.80;1.05;;;19.80;99.90;;;;;;10153096;28;20060;-68
2024/04/05 22:01:59;;;;;;;3.05;1.50;;;19.70;99.90;;;;;;10133239;28;20064;-70
2024/04/05 22:06:50;;;;;;;5.65;1.65;;;19.80;99.90;;;;;;10144378;28;20990;-69
2024/04/05 22:11:41;;;;;;;1.60;1.48;;;19.80;99.90;;;;;;10146895;28;20124;-69
2024/04/05 22:16:32;;;;;;;1.20;1.10;;;19.80;99.90;;;;;;10149971;28;20036;-70
2024/04/05 22:21:23;;;;;;;1.92;1.00;;;19.80;99.90;;;;;;10150985;28;20111;-68
2024/04/05 22:26:13;;;;;;;1.48;0.90;;;19.80;99.90;;;;;;10133388;28;20174;-69
2024/04/05 22:31:04;;;;;;;2.35;1.25;;;19.80;99.90;;;;;;10158575;28;20576;-70
2024/04/05 22:35:55;;;;;;;1.95;1.38;;;19.70;99.90;;;;;;10158751;28;20046;-71
2024/04/05 22:40:45;;;;;;;3.40;2.00;;;19.60;99.90;;;;;;10159083;28;20402;-69
2024/04/05 22:45:36;;;;;;;4.95;2.25;;;19.60;99.90;;;;;;10137524;28;20036;-71
2024/04/05 22:50:27;;;;;;;2.95;2.08;;;19.50;99.90;;;;;;10141292;28;20313;-71
2024/04/05 22:55:17;;;;;;;7.22;2.58;;;19.50;99.90;;;;;;10142933;28;20135;-73
2024/04/05 23:00:10;;;;;;;3.22;1.42;;;19.40;99.90;;;;;;10142909;28;20458;-70
2024/04/05 23:05:01;;;;;;;2.72;2.33;;;19.30;99.90;;;;;;10143940;28;20064;-71
2024/04/05 23:09:52;;;;;;;2.42;1.67;;;19.30;99.90;;;;;;10139281;28;20055;-70
2024/04/05 23:14:42;;;;;;;5.55;2.08;;;19.20;99.90;;;;;;10146027;28;20444;-72
2024/04/05 23:19:33;;;;;;;3.67;2.00;;;19.10;99.90;;;;;;10149863;28;20032;-71
2024/04/05 23:24:23;;;;;;;3.78;1.92;;;19.10;99.90;;;;;;10152466;28;20039;-70
2024/04/05 23:29:14;;;;;;;3.58;2.05;;;19.10;99.90;;;;;;10133450;28;20051;-69
2024/04/05 23:34:05;;;;;;;5.03;1.90;;;19.00;99.90;;;;;;10145486;28;20039;-71
2024/04/05 23:38:55;;;;;;;2.50;1.80;;;19.00;99.90;;;;;;10141157;28;20039;-70
2024/04/05 23:43:46;;;;;;;2.90;1.45;;;19.00;99.90;;;;;;10140070;28;20020;-71
2024/04/05 23:48:37;;;;;;;2.97;2.25;;;18.90;99.90;;;;;;10140260;28;20039;-71
2024/04/05 23:53:27;;;;;;;4.70;2.42;;;18.90;99.90;;;;;;10141551;28;20504;-70
2024/04/05 23:58:18;;;;;;;3.63;2.15;;;18.80;99.90;;;;;;10137378;28;20082;-72
